Hlavní strana
METAR-TAF:

METAR-TAF

Letiště :

Whiting_Field_Naval_Air_Station_South_Airport

Milton, Florida, Spojené státy americké

zeměpisná šířka: 30-41-50N, zeměpisná délka: 087-01-12W, výška: 54 m

Aktuální stav počasí

Zpráva byla vytvořena před 44 minutami, v 16:56 UTC
Severní vítr 12 kt
Teplota 14°C
Vlhkost vzduchu 58%
Tlak 1020 hPa
Viditelnost: 16.1 km
Skoro jasno ve výšce 3600 ft

METAR: KNDZ 151656Z 36012KT 10SM FEW036 14/06 A3012 RMK AO2 SLP189 T01390056 $

Čas: 11:40 (17:40 UTC)


TAF: chybějící

Stav a předpovědi počasí z více než 4 000 letišť (zprávy METAR a TAF).

Červené a žluté tečky na mapě představují dostupné meteorologické stanice.

Když kurzor umístíte na tečku, zobrazí se název stanice.

Pak kliknutím zobrazíte stav a předpověď počasí.

Chcete-li změnit mapu, kliknutím na zelené tlačítko se znaménkem +mapu přiblížíte, kliknutím na zelené tlačítko se znaménkem – mapu oddálíte a kliknutím na zelené šipky přejdete na sousední mapy.


METAR-TAF: